Terminal Aerodrome Forecast
Issued by NWS

Home | Current Version | Previous Version | Text Only | Print | Product List | Glossary On
Versions: 1 2 3 4 5 6 7 8 9 10 11 12 13 14 15 16 17 18 19 20 21 22 23 24 25 26 27 28 29 30 31 32 33 34 35 36 37 38 39 40 41 42
000
FTAK31 PANC 230924 AAB
TAFADL
TAF AMD
PADL 230924Z 2309/2406 20012G18KT P6SM SCT025 OVC070
      TEMPO 2309/2312 20005KT BKN015
     FM231200 20004KT 5SM BR OVC008
     FM231800 20005KT P6SM SCT008 OVC015
     FM232300 21010KT P6SM VCSH BKN025
      AMD LTD TO CLD VIS AND WIND 2309/2316=

USA.gov is the U.S. government's official web portal to all federal, state and local government web resources and services.